sensor_id;sensor_type;location;lat;lon;timestamp;P1;durP1;ratioP1;P2;durP2;ratioP2
8199;SDS011;4141;47.880;12.340;2022-07-01T00:00:04;4.40;;;2.63;;
8199;SDS011;4141;47.880;12.340;2022-07-01T00:02:33;4.63;;;2.10;;
8199;SDS011;4141;47.880;12.340;2022-07-01T00:05:01;7.80;;;2.13;;
8199;SDS011;4141;47.880;12.340;2022-07-01T00:07:31;3.90;;;2.50;;
8199;SDS011;4141;47.880;12.340;2022-07-01T00:10:00;10.80;;;2.73;;
8199;SDS011;4141;47.880;12.340;2022-07-01T00:12:28;4.77;;;2.90;;
8199;SDS011;4141;47.880;12.340;2022-07-01T00:14:56;3.03;;;2.07;;
8199;SDS011;4141;47.880;12.340;2022-07-01T00:17:24;3.57;;;2.23;;
8199;SDS011;4141;47.880;12.340;2022-07-01T00:19:53;5.57;;;2.87;;
8199;SDS011;4141;47.880;12.340;2022-07-01T00:22:21;3.43;;;2.07;;
8199;SDS011;4141;47.880;12.340;2022-07-01T00:24:50;8.00;;;2.43;;
8199;SDS011;4141;47.880;12.340;2022-07-01T00:27:19;3.50;;;2.40;;
8199;SDS011;4141;47.880;12.340;2022-07-01T00:29:47;6.37;;;2.50;;
8199;SDS011;4141;47.880;12.340;2022-07-01T00:32:15;8.33;;;2.67;;
8199;SDS011;4141;47.880;12.340;2022-07-01T00:34:43;8.90;;;2.63;;
8199;SDS011;4141;47.880;12.340;2022-07-01T00:37:11;3.00;;;2.33;;
8199;SDS011;4141;47.880;12.340;2022-07-01T00:39:40;5.07;;;2.23;;
8199;SDS011;4141;47.880;12.340;2022-07-01T00:42:09;10.00;;;2.57;;
8199;SDS011;4141;47.880;12.340;2022-07-01T00:44:37;3.63;;;2.53;;
8199;SDS011;4141;47.880;12.340;2022-07-01T00:47:07;4.07;;;2.80;;
8199;SDS011;4141;47.880;12.340;2022-07-01T00:49:38;3.83;;;2.53;;
8199;SDS011;4141;47.880;12.340;2022-07-01T00:52:07;7.93;;;2.40;;
8199;SDS011;4141;47.880;12.340;2022-07-01T00:54:37;8.47;;;2.53;;
8199;SDS011;4141;47.880;12.340;2022-07-01T00:57:06;5.97;;;2.30;;
8199;SDS011;4141;47.880;12.340;2022-07-01T00:59:37;5.07;;;3.00;;
8199;SDS011;4141;47.880;12.340;2022-07-01T01:02:07;5.33;;;2.50;;
8199;SDS011;4141;47.880;12.340;2022-07-01T01:04:35;2.57;;;2.20;;
8199;SDS011;4141;47.880;12.340;2022-07-01T01:07:04;10.27;;;2.63;;
8199;SDS011;4141;47.880;12.340;2022-07-01T01:09:33;4.40;;;2.53;;
8199;SDS011;4141;47.880;12.340;2022-07-01T01:12:01;4.60;;;2.70;;
8199;SDS011;4141;47.880;12.340;2022-07-01T01:14:30;8.90;;;2.70;;
8199;SDS011;4141;47.880;12.340;2022-07-01T01:17:12;4.07;;;2.80;;
8199;SDS011;4141;47.880;12.340;2022-07-01T01:19:41;5.07;;;2.50;;
8199;SDS011;4141;47.880;12.340;2022-07-01T01:22:11;4.43;;;2.53;;
8199;SDS011;4141;47.880;12.340;2022-07-01T01:24:41;8.33;;;2.37;;
8199;SDS011;4141;47.880;12.340;2022-07-01T01:27:10;2.47;;;2.27;;
8199;SDS011;4141;47.880;12.340;2022-07-01T01:29:40;4.03;;;2.00;;
8199;SDS011;4141;47.880;12.340;2022-07-01T01:32:08;2.33;;;1.53;;
8199;SDS011;4141;47.880;12.340;2022-07-01T01:34:38;5.17;;;2.17;;
8199;SDS011;4141;47.880;12.340;2022-07-01T01:37:07;5.50;;;2.10;;
8199;SDS011;4141;47.880;12.340;2022-07-01T01:39:37;3.33;;;1.97;;
8199;SDS011;4141;47.880;12.340;2022-07-01T01:42:05;4.53;;;1.97;;
8199;SDS011;4141;47.880;12.340;2022-07-01T01:44:34;5.47;;;1.70;;
8199;SDS011;4141;47.880;12.340;2022-07-01T01:47:03;2.70;;;1.40;;
8199;SDS011;4141;47.880;12.340;2022-07-01T01:49:31;2.57;;;1.67;;
8199;SDS011;4141;47.880;12.340;2022-07-01T01:52:00;4.23;;;1.70;;
8199;SDS011;4141;47.880;12.340;2022-07-01T01:54:28;6.83;;;1.37;;
8199;SDS011;4141;47.880;12.340;2022-07-01T01:56:57;4.00;;;1.70;;
8199;SDS011;4141;47.880;12.340;2022-07-01T01:59:26;3.60;;;1.13;;
8199;SDS011;4141;47.880;12.340;2022-07-01T02:01:54;3.40;;;1.23;;
8199;SDS011;4141;47.880;12.340;2022-07-01T02:04:22;6.33;;;1.17;;
8199;SDS011;4141;47.880;12.340;2022-07-01T02:06:51;1.33;;;0.80;;
8199;SDS011;4141;47.880;12.340;2022-07-01T02:09:19;1.73;;;1.33;;
8199;SDS011;4141;47.880;12.340;2022-07-01T02:11:48;3.73;;;1.63;;
8199;SDS011;4141;47.880;12.340;2022-07-01T02:14:17;1.53;;;0.90;;
8199;SDS011;4141;47.880;12.340;2022-07-01T02:16:46;7.70;;;1.30;;
8199;SDS011;4141;47.880;12.340;2022-07-01T02:19:14;2.60;;;1.33;;
8199;SDS011;4141;47.880;12.340;2022-07-01T02:21:42;4.87;;;1.13;;
8199;SDS011;4141;47.880;12.340;2022-07-01T02:24:10;1.73;;;0.83;;
8199;SDS011;4141;47.880;12.340;2022-07-01T02:26:38;6.80;;;1.20;;
8199;SDS011;4141;47.880;12.340;2022-07-01T02:29:06;1.30;;;0.83;;
8199;SDS011;4141;47.880;12.340;2022-07-01T02:31:36;1.27;;;0.70;;
8199;SDS011;4141;47.880;12.340;2022-07-01T02:34:04;1.70;;;0.87;;
8199;SDS011;4141;47.880;12.340;2022-07-01T02:36:33;2.13;;;0.70;;
8199;SDS011;4141;47.880;12.340;2022-07-01T02:39:01;1.43;;;0.80;;
8199;SDS011;4141;47.880;12.340;2022-07-01T02:41:29;1.17;;;0.90;;
8199;SDS011;4141;47.880;12.340;2022-07-01T02:43:58;2.83;;;0.90;;
8199;SDS011;4141;47.880;12.340;2022-07-01T02:46:26;4.70;;;0.90;;
8199;SDS011;4141;47.880;12.340;2022-07-01T02:48:55;4.50;;;1.00;;
8199;SDS011;4141;47.880;12.340;2022-07-01T02:51:24;2.13;;;0.80;;
8199;SDS011;4141;47.880;12.340;2022-07-01T02:53:52;1.40;;;0.53;;
8199;SDS011;4141;47.880;12.340;2022-07-01T02:56:21;1.30;;;0.90;;
8199;SDS011;4141;47.880;12.340;2022-07-01T02:58:49;2.27;;;0.90;;
8199;SDS011;4141;47.880;12.340;2022-07-01T03:01:18;1.53;;;0.80;;
8199;SDS011;4141;47.880;12.340;2022-07-01T03:03:46;0.90;;;0.50;;
8199;SDS011;4141;47.880;12.340;2022-07-01T03:06:16;4.97;;;1.10;;
8199;SDS011;4141;47.880;12.340;2022-07-01T03:08:44;2.20;;;0.70;;
8199;SDS011;4141;47.880;12.340;2022-07-01T03:11:12;2.93;;;1.00;;
8199;SDS011;4141;47.880;12.340;2022-07-01T03:13:41;1.40;;;0.70;;
8199;SDS011;4141;47.880;12.340;2022-07-01T03:16:09;1.40;;;0.73;;
8199;SDS011;4141;47.880;12.340;2022-07-01T03:18:38;2.23;;;0.87;;
8199;SDS011;4141;47.880;12.340;2022-07-01T03:21:06;3.17;;;1.20;;
8199;SDS011;4141;47.880;12.340;2022-07-01T03:23:36;1.23;;;0.70;;
8199;SDS011;4141;47.880;12.340;2022-07-01T03:26:04;1.53;;;0.70;;
8199;SDS011;4141;47.880;12.340;2022-07-01T03:28:32;1.70;;;0.90;;
8199;SDS011;4141;47.880;12.340;2022-07-01T03:31:01;3.00;;;0.70;;
8199;SDS011;4141;47.880;12.340;2022-07-01T03:33:30;2.20;;;0.70;;
8199;SDS011;4141;47.880;12.340;2022-07-01T03:35:59;1.30;;;0.70;;
8199;SDS011;4141;47.880;12.340;2022-07-01T03:38:27;1.30;;;0.60;;
8199;SDS011;4141;47.880;12.340;2022-07-01T03:40:56;3.93;;;0.70;;
8199;SDS011;4141;47.880;12.340;2022-07-01T03:43:25;1.20;;;0.70;;
8199;SDS011;4141;47.880;12.340;2022-07-01T03:45:53;1.17;;;0.70;;
8199;SDS011;4141;47.880;12.340;2022-07-01T03:48:21;1.10;;;0.70;;
8199;SDS011;4141;47.880;12.340;2022-07-01T03:50:50;1.67;;;0.80;;
8199;SDS011;4141;47.880;12.340;2022-07-01T03:53:18;1.30;;;0.70;;
8199;SDS011;4141;47.880;12.340;2022-07-01T03:56:05;1.27;;;0.70;;
8199;SDS011;4141;47.880;12.340;2022-07-01T03:58:34;1.70;;;1.00;;
8199;SDS011;4141;47.880;12.340;2022-07-01T04:01:02;1.50;;;0.90;;
8199;SDS011;4141;47.880;12.340;2022-07-01T04:03:30;2.80;;;0.80;;
8199;SDS011;4141;47.880;12.340;2022-07-01T04:05:59;1.33;;;1.03;;
8199;SDS011;4141;47.880;12.340;2022-07-01T04:08:27;1.10;;;0.67;;
8199;SDS011;4141;47.880;12.340;2022-07-01T04:10:55;1.63;;;0.80;;
8199;SDS011;4141;47.880;12.340;2022-07-01T04:13:25;1.37;;;1.00;;
8199;SDS011;4141;47.880;12.340;2022-07-01T04:15:57;2.00;;;0.87;;
8199;SDS011;4141;47.880;12.340;2022-07-01T04:18:27;1.30;;;0.70;;
8199;SDS011;4141;47.880;12.340;2022-07-01T04:20:55;1.33;;;0.70;;
8199;SDS011;4141;47.880;12.340;2022-07-01T04:23:41;1.67;;;0.90;;
8199;SDS011;4141;47.880;12.340;2022-07-01T04:26:09;1.13;;;0.70;;
8199;SDS011;4141;47.880;12.340;2022-07-01T04:28:59;1.77;;;0.63;;
8199;SDS011;4141;47.880;12.340;2022-07-01T04:31:28;1.27;;;0.70;;
8199;SDS011;4141;47.880;12.340;2022-07-01T04:33:56;1.00;;;0.60;;
8199;SDS011;4141;47.880;12.340;2022-07-01T04:36:25;2.40;;;0.80;;
8199;SDS011;4141;47.880;12.340;2022-07-01T04:38:54;7.10;;;1.20;;
8199;SDS011;4141;47.880;12.340;2022-07-01T04:41:22;1.43;;;0.47;;
8199;SDS011;4141;47.880;12.340;2022-07-01T04:44:09;1.30;;;0.50;;
8199;SDS011;4141;47.880;12.340;2022-07-01T04:46:38;4.47;;;0.63;;
8199;SDS011;4141;47.880;12.340;2022-07-01T04:49:06;1.57;;;0.70;;
8199;SDS011;4141;47.880;12.340;2022-07-01T04:51:34;1.00;;;0.70;;
8199;SDS011;4141;47.880;12.340;2022-07-01T04:54:03;1.20;;;0.57;;
8199;SDS011;4141;47.880;12.340;2022-07-01T04:56:32;1.57;;;0.70;;
8199;SDS011;4141;47.880;12.340;2022-07-01T04:59:10;1.30;;;0.67;;
8199;SDS011;4141;47.880;12.340;2022-07-01T05:01:38;1.33;;;0.60;;
8199;SDS011;4141;47.880;12.340;2022-07-01T05:04:07;1.10;;;0.57;;
8199;SDS011;4141;47.880;12.340;2022-07-01T05:06:35;1.10;;;0.60;;
8199;SDS011;4141;47.880;12.340;2022-07-01T05:09:03;1.60;;;0.73;;
8199;SDS011;4141;47.880;12.340;2022-07-01T05:11:32;1.10;;;0.70;;
8199;SDS011;4141;47.880;12.340;2022-07-01T05:14:00;1.13;;;0.70;;
8199;SDS011;4141;47.880;12.340;2022-07-01T05:16:30;2.17;;;0.80;;
8199;SDS011;4141;47.880;12.340;2022-07-01T05:18:58;2.33;;;0.80;;
8199;SDS011;4141;47.880;12.340;2022-07-01T05:21:44;1.40;;;0.80;;
8199;SDS011;4141;47.880;12.340;2022-07-01T05:24:27;3.47;;;1.80;;
8199;SDS011;4141;47.880;12.340;2022-07-01T05:26:58;2.00;;;1.30;;
8199;SDS011;4141;47.880;12.340;2022-07-01T05:29:27;3.60;;;1.10;;
8199;SDS011;4141;47.880;12.340;2022-07-01T05:31:57;1.67;;;0.97;;
8199;SDS011;4141;47.880;12.340;2022-07-01T05:34:25;2.87;;;0.93;;
8199;SDS011;4141;47.880;12.340;2022-07-01T05:36:53;2.00;;;1.03;;
8199;SDS011;4141;47.880;12.340;2022-07-01T05:39:22;1.67;;;0.90;;
8199;SDS011;4141;47.880;12.340;2022-07-01T05:41:50;2.60;;;1.00;;
8199;SDS011;4141;47.880;12.340;2022-07-01T05:44:18;5.17;;;0.87;;
8199;SDS011;4141;47.880;12.340;2022-07-01T05:46:48;1.20;;;0.63;;
8199;SDS011;4141;47.880;12.340;2022-07-01T05:49:18;0.90;;;0.60;;
8199;SDS011;4141;47.880;12.340;2022-07-01T05:51:46;4.27;;;1.00;;
8199;SDS011;4141;47.880;12.340;2022-07-01T05:54:14;1.43;;;0.73;;
8199;SDS011;4141;47.880;12.340;2022-07-01T05:56:42;1.10;;;0.70;;
8199;SDS011;4141;47.880;12.340;2022-07-01T05:59:11;2.50;;;1.00;;
8199;SDS011;4141;47.880;12.340;2022-07-01T06:01:39;1.73;;;1.17;;
8199;SDS011;4141;47.880;12.340;2022-07-01T06:04:07;3.80;;;1.23;;
8199;SDS011;4141;47.880;12.340;2022-07-01T06:06:37;1.10;;;0.83;;
8199;SDS011;4141;47.880;12.340;2022-07-01T06:09:05;1.97;;;0.87;;
8199;SDS011;4141;47.880;12.340;2022-07-01T06:11:33;9.70;;;0.93;;
8199;SDS011;4141;47.880;12.340;2022-07-01T06:14:01;1.47;;;0.70;;
8199;SDS011;4141;47.880;12.340;2022-07-01T06:16:29;1.17;;;0.70;;
8199;SDS011;4141;47.880;12.340;2022-07-01T06:18:58;2.30;;;0.67;;
8199;SDS011;4141;47.880;12.340;2022-07-01T06:21:26;1.67;;;0.83;;
8199;SDS011;4141;47.880;12.340;2022-07-01T06:23:56;1.97;;;0.70;;
8199;SDS011;4141;47.880;12.340;2022-07-01T06:26:24;1.17;;;0.70;;
8199;SDS011;4141;47.880;12.340;2022-07-01T06:28:53;1.30;;;0.70;;
8199;SDS011;4141;47.880;12.340;2022-07-01T06:31:21;3.87;;;0.90;;
8199;SDS011;4141;47.880;12.340;2022-07-01T06:33:51;2.07;;;0.80;;
8199;SDS011;4141;47.880;12.340;2022-07-01T06:36:19;1.03;;;0.77;;
8199;SDS011;4141;47.880;12.340;2022-07-01T06:38:47;2.07;;;0.70;;
8199;SDS011;4141;47.880;12.340;2022-07-01T06:41:17;1.17;;;0.73;;
8199;SDS011;4141;47.880;12.340;2022-07-01T06:43:54;0.90;;;0.60;;
8199;SDS011;4141;47.880;12.340;2022-07-01T06:46:24;1.07;;;0.50;;
8199;SDS011;4141;47.880;12.340;2022-07-01T06:48:52;1.20;;;0.60;;
8199;SDS011;4141;47.880;12.340;2022-07-01T06:51:22;3.80;;;0.90;;
8199;SDS011;4141;47.880;12.340;2022-07-01T06:53:50;1.60;;;0.70;;
8199;SDS011;4141;47.880;12.340;2022-07-01T06:56:20;1.20;;;0.60;;
8199;SDS011;4141;47.880;12.340;2022-07-01T06:58:48;6.13;;;0.63;;
8199;SDS011;4141;47.880;12.340;2022-07-01T07:01:17;2.07;;;0.90;;
8199;SDS011;4141;47.880;12.340;2022-07-01T07:03:45;1.33;;;0.60;;
8199;SDS011;4141;47.880;12.340;2022-07-01T07:06:13;1.10;;;0.77;;
8199;SDS011;4141;47.880;12.340;2022-07-01T07:08:42;1.10;;;0.60;;
8199;SDS011;4141;47.880;12.340;2022-07-01T07:11:10;1.20;;;0.70;;
8199;SDS011;4141;47.880;12.340;2022-07-01T07:13:40;1.20;;;0.73;;
8199;SDS011;4141;47.880;12.340;2022-07-01T07:16:08;2.33;;;0.70;;
8199;SDS011;4141;47.880;12.340;2022-07-01T07:18:37;1.60;;;0.90;;
8199;SDS011;4141;47.880;12.340;2022-07-01T07:21:05;2.23;;;0.97;;
8199;SDS011;4141;47.880;12.340;2022-07-01T07:23:34;1.23;;;0.70;;
8199;SDS011;4141;47.880;12.340;2022-07-01T07:26:02;1.37;;;0.70;;
8199;SDS011;4141;47.880;12.340;2022-07-01T07:28:31;1.00;;;0.60;;
8199;SDS011;4141;47.880;12.340;2022-07-01T07:31:00;1.83;;;0.70;;
8199;SDS011;4141;47.880;12.340;2022-07-01T07:33:28;3.70;;;0.90;;
8199;SDS011;4141;47.880;12.340;2022-07-01T07:35:57;4.13;;;1.30;;
8199;SDS011;4141;47.880;12.340;2022-07-01T07:38:25;1.00;;;0.60;;
8199;SDS011;4141;47.880;12.340;2022-07-01T07:40:53;1.00;;;0.50;;
8199;SDS011;4141;47.880;12.340;2022-07-01T07:43:22;1.87;;;0.90;;
8199;SDS011;4141;47.880;12.340;2022-07-01T07:45:50;3.53;;;0.70;;
8199;SDS011;4141;47.880;12.340;2022-07-01T07:48:21;1.97;;;0.63;;
8199;SDS011;4141;47.880;12.340;2022-07-01T07:50:49;1.00;;;0.53;;
8199;SDS011;4141;47.880;12.340;2022-07-01T07:53:17;2.03;;;0.70;;
8199;SDS011;4141;47.880;12.340;2022-07-01T07:55:46;1.10;;;0.60;;
8199;SDS011;4141;47.880;12.340;2022-07-01T07:58:14;1.83;;;0.80;;
8199;SDS011;4141;47.880;12.340;2022-07-01T08:00:44;1.20;;;0.67;;
8199;SDS011;4141;47.880;12.340;2022-07-01T08:03:12;1.30;;;0.70;;
8199;SDS011;4141;47.880;12.340;2022-07-01T08:05:42;1.70;;;0.60;;
8199;SDS011;4141;47.880;12.340;2022-07-01T08:08:10;3.23;;;0.60;;
8199;SDS011;4141;47.880;12.340;2022-07-01T08:10:38;2.40;;;0.97;;
8199;SDS011;4141;47.880;12.340;2022-07-01T08:13:07;1.23;;;0.77;;
8199;SDS011;4141;47.880;12.340;2022-07-01T08:15:35;11.37;;;0.77;;
8199;SDS011;4141;47.880;12.340;2022-07-01T08:18:03;1.43;;;0.77;;
8199;SDS011;4141;47.880;12.340;2022-07-01T08:20:32;1.37;;;0.90;;
8199;SDS011;4141;47.880;12.340;2022-07-01T08:23:01;1.30;;;0.57;;
8199;SDS011;4141;47.880;12.340;2022-07-01T08:25:29;2.50;;;1.07;;
8199;SDS011;4141;47.880;12.340;2022-07-01T08:28:01;1.60;;;0.97;;
8199;SDS011;4141;47.880;12.340;2022-07-01T08:30:30;1.33;;;0.83;;
8199;SDS011;4141;47.880;12.340;2022-07-01T08:32:59;1.80;;;0.70;;
8199;SDS011;4141;47.880;12.340;2022-07-01T08:35:28;2.30;;;0.80;;
8199;SDS011;4141;47.880;12.340;2022-07-01T08:37:57;1.10;;;0.70;;
8199;SDS011;4141;47.880;12.340;2022-07-01T08:40:27;1.10;;;0.73;;
8199;SDS011;4141;47.880;12.340;2022-07-01T08:42:57;2.00;;;0.73;;
8199;SDS011;4141;47.880;12.340;2022-07-01T08:45:26;2.07;;;0.93;;
8199;SDS011;4141;47.880;12.340;2022-07-01T08:47:56;2.50;;;0.80;;
8199;SDS011;4141;47.880;12.340;2022-07-01T08:50:28;2.03;;;0.80;;
8199;SDS011;4141;47.880;12.340;2022-07-01T08:52:57;1.43;;;0.60;;
8199;SDS011;4141;47.880;12.340;2022-07-01T08:55:26;1.30;;;0.90;;
8199;SDS011;4141;47.880;12.340;2022-07-01T08:57:55;8.77;;;0.90;;
8199;SDS011;4141;47.880;12.340;2022-07-01T09:00:29;2.17;;;0.70;;
8199;SDS011;4141;47.880;12.340;2022-07-01T09:02:59;2.17;;;1.23;;
8199;SDS011;4141;47.880;12.340;2022-07-01T09:05:28;2.60;;;0.80;;
8199;SDS011;4141;47.880;12.340;2022-07-01T09:07:58;5.37;;;0.90;;
8199;SDS011;4141;47.880;12.340;2022-07-01T09:10:28;1.73;;;0.97;;
8199;SDS011;4141;47.880;12.340;2022-07-01T09:13:05;2.87;;;0.90;;
8199;SDS011;4141;47.880;12.340;2022-07-01T09:15:34;1.33;;;0.73;;
8199;SDS011;4141;47.880;12.340;2022-07-01T09:18:04;1.30;;;0.80;;
8199;SDS011;4141;47.880;12.340;2022-07-01T09:20:34;1.70;;;0.80;;
8199;SDS011;4141;47.880;12.340;2022-07-01T09:23:03;1.10;;;0.80;;
8199;SDS011;4141;47.880;12.340;2022-07-01T09:25:35;3.63;;;1.00;;
8199;SDS011;4141;47.880;12.340;2022-07-01T09:28:14;15.53;;;3.13;;
8199;SDS011;4141;47.880;12.340;2022-07-01T09:30:44;12.80;;;1.50;;
8199;SDS011;4141;47.880;12.340;2022-07-01T09:33:15;3.13;;;0.97;;
8199;SDS011;4141;47.880;12.340;2022-07-01T09:35:45;2.63;;;1.10;;
8199;SDS011;4141;47.880;12.340;2022-07-01T09:38:16;1.57;;;1.17;;
8199;SDS011;4141;47.880;12.340;2022-07-01T09:41:00;2.90;;;1.10;;
8199;SDS011;4141;47.880;12.340;2022-07-01T09:43:30;1.20;;;1.00;;
8199;SDS011;4141;47.880;12.340;2022-07-01T09:46:00;3.40;;;0.90;;
8199;SDS011;4141;47.880;12.340;2022-07-01T09:48:41;3.07;;;1.10;;
8199;SDS011;4141;47.880;12.340;2022-07-01T09:51:11;6.00;;;1.20;;
8199;SDS011;4141;47.880;12.340;2022-07-01T09:53:41;2.73;;;1.30;;
8199;SDS011;4141;47.880;12.340;2022-07-01T09:56:11;3.73;;;0.90;;
8199;SDS011;4141;47.880;12.340;2022-07-01T09:58:39;1.30;;;0.70;;
8199;SDS011;4141;47.880;12.340;2022-07-01T10:01:09;5.50;;;0.93;;
8199;SDS011;4141;47.880;12.340;2022-07-01T10:03:38;1.10;;;0.70;;
8199;SDS011;4141;47.880;12.340;2022-07-01T10:09:09;2.43;;;0.60;;
8199;SDS011;4141;47.880;12.340;2022-07-01T10:14:47;1.47;;;0.50;;
8199;SDS011;4141;47.880;12.340;2022-07-01T10:17:25;1.00;;;0.50;;
8199;SDS011;4141;47.880;12.340;2022-07-01T10:19:55;2.70;;;0.60;;
8199;SDS011;4141;47.880;12.340;2022-07-01T10:22:24;1.60;;;0.70;;
8199;SDS011;4141;47.880;12.340;2022-07-01T10:24:54;1.43;;;0.57;;
8199;SDS011;4141;47.880;12.340;2022-07-01T10:27:22;1.60;;;0.47;;
8199;SDS011;4141;47.880;12.340;2022-07-01T10:32:46;1.00;;;0.40;;
8199;SDS011;4141;47.880;12.340;2022-07-01T10:35:35;1.63;;;0.50;;
8199;SDS011;4141;47.880;12.340;2022-07-01T10:38:03;1.10;;;0.50;;
8199;SDS011;4141;47.880;12.340;2022-07-01T10:40:42;0.80;;;0.50;;
8199;SDS011;4141;47.880;12.340;2022-07-01T10:43:15;0.90;;;0.50;;
8199;SDS011;4141;47.880;12.340;2022-07-01T10:45:56;1.43;;;0.43;;
8199;SDS011;4141;47.880;12.340;2022-07-01T10:48:24;1.10;;;0.50;;
8199;SDS011;4141;47.880;12.340;2022-07-01T10:50:52;3.20;;;0.67;;
8199;SDS011;4141;47.880;12.340;2022-07-01T10:53:21;1.20;;;0.60;;
8199;SDS011;4141;47.880;12.340;2022-07-01T10:55:50;1.00;;;0.50;;
8199;SDS011;4141;47.880;12.340;2022-07-01T10:58:34;1.63;;;0.87;;
8199;SDS011;4141;47.880;12.340;2022-07-01T11:01:04;1.90;;;0.67;;
8199;SDS011;4141;47.880;12.340;2022-07-01T11:03:34;1.70;;;0.60;;
8199;SDS011;4141;47.880;12.340;2022-07-01T11:06:03;0.90;;;0.53;;
8199;SDS011;4141;47.880;12.340;2022-07-01T11:08:31;3.40;;;0.80;;
8199;SDS011;4141;47.880;12.340;2022-07-01T11:11:02;1.43;;;0.60;;
8199;SDS011;4141;47.880;12.340;2022-07-01T11:13:32;2.10;;;0.80;;
8199;SDS011;4141;47.880;12.340;2022-07-01T11:16:02;1.23;;;0.70;;
8199;SDS011;4141;47.880;12.340;2022-07-01T11:18:33;2.03;;;0.80;;
8199;SDS011;4141;47.880;12.340;2022-07-01T11:21:04;1.00;;;0.50;;
8199;SDS011;4141;47.880;12.340;2022-07-01T11:23:34;1.27;;;0.67;;
8199;SDS011;4141;47.880;12.340;2022-07-01T11:26:07;1.53;;;1.00;;
8199;SDS011;4141;47.880;12.340;2022-07-01T11:28:46;0.87;;;0.53;;
8199;SDS011;4141;47.880;12.340;2022-07-01T11:31:16;2.80;;;0.80;;
8199;SDS011;4141;47.880;12.340;2022-07-01T11:33:54;1.50;;;0.97;;
8199;SDS011;4141;47.880;12.340;2022-07-01T11:36:23;2.27;;;0.90;;
8199;SDS011;4141;47.880;12.340;2022-07-01T11:39:17;1.80;;;1.07;;
8199;SDS011;4141;47.880;12.340;2022-07-01T11:41:53;1.27;;;0.90;;
8199;SDS011;4141;47.880;12.340;2022-07-01T11:44:29;1.10;;;0.80;;
8199;SDS011;4141;47.880;12.340;2022-07-01T11:47:00;1.00;;;0.60;;
8199;SDS011;4141;47.880;12.340;2022-07-01T11:49:28;1.97;;;1.20;;
8199;SDS011;4141;47.880;12.340;2022-07-01T11:51:57;1.00;;;0.70;;
8199;SDS011;4141;47.880;12.340;2022-07-01T11:54:26;1.00;;;0.60;;
8199;SDS011;4141;47.880;12.340;2022-07-01T11:56:54;0.87;;;0.50;;
8199;SDS011;4141;47.880;12.340;2022-07-01T11:59:22;0.80;;;0.40;;
8199;SDS011;4141;47.880;12.340;2022-07-01T12:01:52;1.03;;;0.40;;
8199;SDS011;4141;47.880;12.340;2022-07-01T12:04:22;0.80;;;0.40;;
8199;SDS011;4141;47.880;12.340;2022-07-01T12:06:52;0.80;;;0.40;;
8199;SDS011;4141;47.880;12.340;2022-07-01T12:09:20;1.67;;;1.03;;
8199;SDS011;4141;47.880;12.340;2022-07-01T12:11:50;0.90;;;0.40;;
8199;SDS011;4141;47.880;12.340;2022-07-01T12:14:19;1.07;;;0.60;;
8199;SDS011;4141;47.880;12.340;2022-07-01T12:16:50;1.00;;;0.57;;
8199;SDS011;4141;47.880;12.340;2022-07-01T12:19:19;1.07;;;0.50;;
8199;SDS011;4141;47.880;12.340;2022-07-01T12:21:50;1.53;;;0.50;;
8199;SDS011;4141;47.880;12.340;2022-07-01T12:24:19;3.77;;;0.70;;
8199;SDS011;4141;47.880;12.340;2022-07-01T12:26:50;0.90;;;0.50;;
8199;SDS011;4141;47.880;12.340;2022-07-01T12:29:22;1.67;;;0.50;;
8199;SDS011;4141;47.880;12.340;2022-07-01T12:31:54;1.00;;;0.50;;
8199;SDS011;4141;47.880;12.340;2022-07-01T12:34:37;0.90;;;0.57;;
8199;SDS011;4141;47.880;12.340;2022-07-01T12:37:09;0.90;;;0.47;;
8199;SDS011;4141;47.880;12.340;2022-07-01T12:39:43;0.90;;;0.50;;
8199;SDS011;4141;47.880;12.340;2022-07-01T12:42:19;1.20;;;0.60;;
8199;SDS011;4141;47.880;12.340;2022-07-01T12:44:48;0.70;;;0.40;;
8199;SDS011;4141;47.880;12.340;2022-07-01T12:47:17;1.30;;;0.60;;
8199;SDS011;4141;47.880;12.340;2022-07-01T12:49:46;1.27;;;0.57;;
8199;SDS011;4141;47.880;12.340;2022-07-01T12:52:25;1.13;;;0.70;;
8199;SDS011;4141;47.880;12.340;2022-07-01T12:54:55;1.10;;;0.67;;
8199;SDS011;4141;47.880;12.340;2022-07-01T12:57:30;1.43;;;0.60;;
8199;SDS011;4141;47.880;12.340;2022-07-01T13:00:05;0.90;;;0.60;;
8199;SDS011;4141;47.880;12.340;2022-07-01T13:02:34;1.50;;;1.10;;
8199;SDS011;4141;47.880;12.340;2022-07-01T13:05:02;1.40;;;0.70;;
8199;SDS011;4141;47.880;12.340;2022-07-01T13:07:32;1.20;;;0.60;;
8199;SDS011;4141;47.880;12.340;2022-07-01T13:10:00;2.40;;;0.60;;
8199;SDS011;4141;47.880;12.340;2022-07-01T13:12:29;1.83;;;0.50;;
8199;SDS011;4141;47.880;12.340;2022-07-01T13:14:58;3.40;;;0.93;;
8199;SDS011;4141;47.880;12.340;2022-07-01T13:17:26;2.30;;;0.60;;
8199;SDS011;4141;47.880;12.340;2022-07-01T13:19:57;1.63;;;0.60;;
8199;SDS011;4141;47.880;12.340;2022-07-01T13:22:26;2.30;;;1.00;;
8199;SDS011;4141;47.880;12.340;2022-07-01T13:24:56;1.33;;;0.77;;
8199;SDS011;4141;47.880;12.340;2022-07-01T13:27:24;1.63;;;0.70;;
8199;SDS011;4141;47.880;12.340;2022-07-01T13:29:52;1.07;;;0.70;;
8199;SDS011;4141;47.880;12.340;2022-07-01T13:32:21;2.40;;;0.70;;
8199;SDS011;4141;47.880;12.340;2022-07-01T13:34:49;1.00;;;0.60;;
8199;SDS011;4141;47.880;12.340;2022-07-01T13:37:17;0.90;;;0.60;;
8199;SDS011;4141;47.880;12.340;2022-07-01T13:39:46;8.53;;;0.90;;
8199;SDS011;4141;47.880;12.340;2022-07-01T13:42:15;1.00;;;0.70;;
8199;SDS011;4141;47.880;12.340;2022-07-01T13:44:44;1.23;;;0.73;;
8199;SDS011;4141;47.880;12.340;2022-07-01T13:47:12;1.10;;;0.70;;
8199;SDS011;4141;47.880;12.340;2022-07-01T13:49:41;1.20;;;0.60;;
8199;SDS011;4141;47.880;12.340;2022-07-01T13:52:10;2.57;;;0.73;;
8199;SDS011;4141;47.880;12.340;2022-07-01T13:54:38;1.20;;;0.70;;
8199;SDS011;4141;47.880;12.340;2022-07-01T13:57:06;1.80;;;0.77;;
8199;SDS011;4141;47.880;12.340;2022-07-01T13:59:36;1.40;;;0.53;;
8199;SDS011;4141;47.880;12.340;2022-07-01T14:02:07;2.37;;;0.80;;
8199;SDS011;4141;47.880;12.340;2022-07-01T14:04:36;2.20;;;0.80;;
8199;SDS011;4141;47.880;12.340;2022-07-01T14:07:04;2.10;;;0.70;;
8199;SDS011;4141;47.880;12.340;2022-07-01T14:09:33;1.30;;;1.00;;
8199;SDS011;4141;47.880;12.340;2022-07-01T14:12:02;1.20;;;0.90;;
8199;SDS011;4141;47.880;12.340;2022-07-01T14:14:39;1.17;;;0.60;;
8199;SDS011;4141;47.880;12.340;2022-07-01T14:17:07;1.20;;;0.67;;
8199;SDS011;4141;47.880;12.340;2022-07-01T14:19:35;2.60;;;0.67;;
8199;SDS011;4141;47.880;12.340;2022-07-01T14:22:04;1.10;;;0.80;;
8199;SDS011;4141;47.880;12.340;2022-07-01T14:24:32;8.50;;;1.07;;
8199;SDS011;4141;47.880;12.340;2022-07-01T14:27:00;1.60;;;1.20;;
8199;SDS011;4141;47.880;12.340;2022-07-01T14:29:29;2.50;;;1.60;;
8199;SDS011;4141;47.880;12.340;2022-07-01T14:31:58;4.23;;;1.93;;
8199;SDS011;4141;47.880;12.340;2022-07-01T14:34:27;2.07;;;1.57;;
8199;SDS011;4141;47.880;12.340;2022-07-01T14:36:55;2.07;;;1.67;;
8199;SDS011;4141;47.880;12.340;2022-07-01T14:39:24;3.20;;;1.70;;
8199;SDS011;4141;47.880;12.340;2022-07-01T14:41:52;1.83;;;1.30;;
8199;SDS011;4141;47.880;12.340;2022-07-01T14:44:22;2.27;;;1.43;;
8199;SDS011;4141;47.880;12.340;2022-07-01T14:46:50;1.53;;;1.10;;
8199;SDS011;4141;47.880;12.340;2022-07-01T14:49:21;1.60;;;1.17;;
8199;SDS011;4141;47.880;12.340;2022-07-01T14:51:49;1.40;;;1.20;;
8199;SDS011;4141;47.880;12.340;2022-07-01T14:54:18;3.47;;;1.27;;
8199;SDS011;4141;47.880;12.340;2022-07-01T14:56:46;1.67;;;0.77;;
8199;SDS011;4141;47.880;12.340;2022-07-01T14:59:14;1.60;;;1.00;;
8199;SDS011;4141;47.880;12.340;2022-07-01T15:01:42;1.67;;;1.00;;
8199;SDS011;4141;47.880;12.340;2022-07-01T15:04:11;2.50;;;0.90;;
8199;SDS011;4141;47.880;12.340;2022-07-01T15:06:40;1.57;;;1.07;;
8199;SDS011;4141;47.880;12.340;2022-07-01T15:09:08;1.83;;;1.10;;
8199;SDS011;4141;47.880;12.340;2022-07-01T15:11:38;1.83;;;1.10;;
8199;SDS011;4141;47.880;12.340;2022-07-01T15:14:06;1.50;;;1.10;;
8199;SDS011;4141;47.880;12.340;2022-07-01T15:16:34;2.47;;;1.10;;
8199;SDS011;4141;47.880;12.340;2022-07-01T15:19:03;4.97;;;1.03;;
8199;SDS011;4141;47.880;12.340;2022-07-01T15:21:31;1.50;;;0.90;;
8199;SDS011;4141;47.880;12.340;2022-07-01T15:24:01;2.37;;;0.90;;